Time;durP1;ratioP1;P1;durP2;ratioP2;P2;SDS_P1;SDS_P2;PMS_P1;PMS_P2;Temp;Humidity;BMP_temperature;BMP_pressure;BME280_temperature;BME280_humidity;BME280_pressure;Samples;Min_cycle;Max_cycle;Signal;HPM_P1;HPM_P2
2022/08/15 00:01:57;;;;;;;9.95;8.93;;;;;;;27.69;41.75;100112.34;5093040;28;20071;-76
2022/08/15 00:04:24;;;;;;;10.20;8.65;;;;;;;27.67;41.72;100114.50;5093462;28;20036;-75
2022/08/15 00:07:01;;;;;;;11.00;8.88;;;;;;;27.64;41.73;100112.22;5092809;28;20040;-75
2022/08/15 00:09:28;;;;;;;12.15;8.75;;;;;;;27.61;41.91;100112.69;5091684;28;20409;-75
2022/08/15 00:12:15;;;;;;;10.95;9.02;;;;;;;27.55;41.73;100146.72;5092897;28;20089;-75
2022/08/15 00:15:05;;;;;;;12.48;8.88;;;;;;;27.45;41.94;100150.00;5091611;27;20048;-75
2022/08/15 00:17:35;;;;;;;9.68;8.07;;;;;;;27.34;41.91;100127.94;5091713;28;20048;-76
2022/08/15 00:20:17;;;;;;;9.98;8.85;;;;;;;27.26;42.20;100122.75;5092561;28;20071;-75
2022/08/15 00:22:52;;;;;;;10.95;9.40;;;;;;;27.21;42.25;100129.81;5092748;28;20043;-76
2022/08/15 00:25:19;;;;;;;10.18;8.73;;;;;;;27.19;42.28;100125.59;5091161;28;20052;-75
2022/08/15 00:27:52;;;;;;;10.77;9.57;;;;;;;27.18;42.49;100129.44;5091976;28;20059;-75
2022/08/15 00:30:21;;;;;;;11.95;8.95;;;;;;;27.16;42.55;100121.41;5092269;28;20040;-75
2022/08/15 00:33:10;;;;;;;10.68;9.68;;;;;;;27.15;42.87;100114.22;5090747;28;20043;-76
2022/08/15 00:35:52;;;;;;;10.27;9.13;;;;;;;27.15;42.64;100116.97;5091388;28;20395;-75
2022/08/15 00:38:30;;;;;;;10.15;9.15;;;;;;;27.14;42.68;100119.97;5092258;28;20036;-76
2022/08/15 00:44:06;;;;;;;11.55;9.35;;;;;;;27.12;42.86;100113.84;5092490;27;20523;-76
2022/08/15 00:46:37;;;;;;;13.18;9.85;;;;;;;27.10;43.03;100116.00;5091037;28;20543;-74
2022/08/15 00:49:07;;;;;;;10.48;9.38;;;;;;;27.09;42.81;100114.31;5090698;28;20563;-74
2022/08/15 00:51:55;;;;;;;15.02;11.00;;;;;;;27.06;43.21;100110.09;5090550;28;20044;-75
2022/08/15 00:54:28;;;;;;;11.38;9.63;;;;;;;27.04;43.04;100117.78;5092514;28;20524;-74
2022/08/15 00:57:20;;;;;;;11.75;10.13;;;;;;;27.04;43.05;100116.94;5092266;28;20036;-76
2022/08/15 01:00:13;;;;;;;10.43;9.10;;;;;;;27.03;43.44;100115.25;5070500;28;20053;-74
2022/08/15 01:03:11;;;;;;;10.75;9.68;;;;;;;26.99;43.39;100114.88;5070553;28;20135;-74
2022/08/15 01:05:46;;;;;;;12.48;10.07;;;;;;;26.92;43.51;100116.84;5072017;28;20161;-73
2022/08/15 01:08:20;;;;;;;11.65;10.45;;;;;;;26.86;43.48;100124.16;5076817;28;20093;-73
2022/08/15 01:10:57;;;;;;;15.75;11.13;;;;;;;26.82;43.63;100119.31;5091996;28;20097;-73
2022/08/15 01:13:33;;;;;;;;;;;;;;;26.78;43.44;100120.88;5090927;28;20039;-77
2022/08/15 01:16:23;;;;;;;12.80;10.65;;;;;;;26.78;43.44;100118.13;5090492;28;19955;-77
2022/08/15 01:19:22;;;;;;;15.85;12.48;;;;;;;26.73;43.85;100120.69;5091391;28;20040;-76
2022/08/15 01:22:00;;;;;;;13.85;11.82;;;;;;;26.70;44.13;100121.16;5091694;28;20044;-76
2022/08/15 01:24:47;;;;;;;12.63;11.32;;;;;;;26.68;43.93;100118.63;5090660;28;20051;-76
2022/08/15 01:27:41;;;;;;;18.77;12.55;;;;;;;26.67;44.12;100110.59;5091126;28;20089;-77
2022/08/15 01:30:14;;;;;;;14.57;11.83;;;;;;;26.62;44.12;100105.78;5090254;28;20097;-78
2022/08/15 01:33:06;;;;;;;14.10;11.93;;;;;;;26.59;44.45;100118.13;5090190;28;20043;-78
2022/08/15 01:35:34;;;;;;;14.05;12.38;;;;;;;26.57;44.25;100105.66;5091621;28;20040;-78
2022/08/15 01:38:17;;;;;;;15.98;12.73;;;;;;;26.53;44.52;100108.03;5089877;28;20040;-77
2022/08/15 01:41:18;;;;;;;13.20;11.90;;;;;;;26.48;44.70;100107.88;5091525;28;20536;-78
2022/08/15 01:44:10;;;;;;;13.35;11.25;;;;;;;26.39;44.59;100112.00;5090430;28;20051;-77
2022/08/15 01:47:27;;;;;;;14.93;11.98;;;;;;;26.32;44.77;100110.38;5089945;28;20039;-77
2022/08/15 01:50:00;;;;;;;14.90;13.30;;;;;;;26.29;44.70;100106.16;5090215;27;20105;-76
2022/08/15 01:52:39;;;;;;;15.73;13.18;;;;;;;26.25;44.66;100103.03;5090000;28;20044;-75
2022/08/15 01:55:50;;;;;;;15.45;11.90;;;;;;;26.21;45.23;100099.06;5090084;28;20044;-76
2022/08/15 01:58:23;;;;;;;15.20;12.40;;;;;;;26.19;45.35;100100.34;5070121;28;20447;-77
2022/08/15 02:01:03;;;;;;;13.77;12.38;;;;;;;26.14;45.20;100095.53;5071759;28;20275;-75
2022/08/15 02:03:33;;;;;;;16.02;13.23;;;;;;;26.12;45.14;100097.69;5089922;28;20040;-74
2022/08/15 02:06:23;;;;;;;13.98;12.57;;;;;;;26.07;45.18;100096.69;5089819;28;20409;-74
2022/08/15 02:09:07;;;;;;;12.77;11.43;;;;;;;25.96;45.40;100093.59;5075300;27;20397;-74
2022/08/15 02:11:56;;;;;;;16.40;12.40;;;;;;;25.88;45.44;100087.53;5089733;28;20063;-74
2022/08/15 02:14:33;;;;;;;19.85;13.23;;;;;;;25.85;45.73;100104.50;5090088;28;20086;-74
2022/08/15 02:17:11;;;;;;;15.27;12.30;;;;;;;25.81;45.83;100114.28;5090173;27;20532;-75
2022/08/15 02:19:41;;;;;;;18.92;14.73;;;;;;;25.74;45.77;100108.84;5089890;28;20273;-74
2022/08/15 02:22:17;;;;;;;15.57;13.95;;;;;;;25.62;45.90;100118.84;5090850;28;20609;-74
2022/08/15 02:24:53;;;;;;;17.00;15.23;;;;;;;25.50;45.94;100120.66;5091402;28;20127;-74
2022/08/15 02:27:19;;;;;;;16.58;14.55;;;;;;;25.40;46.30;100123.91;5090278;28;20036;-75
2022/08/15 02:29:47;;;;;;;16.50;14.73;;;;;;;25.33;46.54;100117.63;5089511;28;20048;-74
2022/08/15 02:32:20;;;;;;;16.35;14.43;;;;;;;25.29;46.66;100124.63;5089601;28;20040;-74
2022/08/15 02:35:00;;;;;;;17.80;14.88;;;;;;;25.24;46.65;100122.50;5089808;28;20044;-74
2022/08/15 02:37:30;;;;;;;17.00;15.20;;;;;;;25.20;46.60;100126.75;5069530;28;20094;-74
2022/08/15 02:40:10;;;;;;;18.23;15.15;;;;;;;25.18;46.88;100119.81;5093534;28;20083;-74
2022/08/15 02:45:34;;;;;;;18.25;14.93;;;;;;;25.16;46.91;100113.69;5095009;28;20089;-75
2022/08/15 02:48:04;;;;;;;17.05;15.25;;;;;;;25.13;46.80;100116.88;5092995;28;20059;-75
2022/08/15 02:50:51;;;;;;;17.10;15.18;;;;;;;25.09;46.95;100126.63;5094713;28;20033;-74
2022/08/15 02:53:20;;;;;;;20.08;16.33;;;;;;;25.05;47.19;100120.72;5093368;28;20048;-74
2022/08/15 02:55:48;;;;;;;18.10;15.75;;;;;;;25.03;47.14;100118.22;5094754;28;20068;-74
2022/08/15 02:58:17;;;;;;;17.00;15.05;;;;;;;25.01;47.26;100127.72;5093222;28;20064;-74
2022/08/15 03:00:55;;;;;;;18.02;14.77;;;;;;;24.98;47.21;100123.53;5093196;28;20052;-75
2022/08/15 03:03:38;;;;;;;18.00;15.32;;;;;;;24.98;47.18;100117.19;5093315;28;20028;-75
2022/08/15 03:06:08;;;;;;;17.20;15.43;;;;;;;24.98;47.35;100126.28;5076087;28;20131;-76
2022/08/15 03:09:00;;;;;;;16.45;14.85;;;;;;;24.97;47.21;100118.22;5093207;28;20047;-75
2022/08/15 03:11:29;;;;;;;20.45;15.10;;;;;;;24.94;47.29;100119.50;5092959;28;20474;-76
2022/08/15 03:14:21;;;;;;;19.65;14.00;;;;;;;24.92;47.05;100118.03;5093286;28;20040;-74
2022/08/15 03:17:03;;;;;;;21.17;13.88;;;;;;;24.91;47.24;100130.09;5092353;28;20036;-74
2022/08/15 03:19:37;;;;;;;14.93;12.60;;;;;;;24.89;47.01;100118.47;5093224;28;20387;-74
2022/08/15 03:22:07;;;;;;;12.05;10.82;;;;;;;24.89;46.85;100115.72;5076355;28;20050;-74
2022/08/15 03:24:38;;;;;;;11.27;10.13;;;;;;;24.88;46.86;100119.53;5092527;28;20051;-74
2022/08/15 03:27:07;;;;;;;12.48;9.30;;;;;;;24.86;46.88;100117.00;5092833;28;20040;-74
2022/08/15 03:29:34;;;;;;;10.88;9.38;;;;;;;24.85;46.52;100107.09;5093781;28;20414;-73
2022/08/15 03:32:18;;;;;;;12.50;8.90;;;;;;;24.82;46.39;100112.19;5092508;28;20510;-74
2022/08/15 03:35:04;;;;;;;9.05;7.60;;;;;;;24.79;45.96;100116.19;5092344;28;20036;-75
2022/08/15 03:37:38;;;;;;;10.93;8.43;;;;;;;24.79;46.12;100121.69;5092800;28;20383;-74
2022/08/15 03:40:28;;;;;;;9.63;7.75;;;;;;;24.80;45.97;100125.28;5092693;28;20048;-75
2022/08/15 03:43:12;;;;;;;9.52;7.00;;;;;;;24.77;45.73;100134.81;5092828;28;20544;-75
2022/08/15 03:45:45;;;;;;;9.23;6.68;;;;;;;24.77;45.81;100128.47;5072244;28;20044;-74
2022/08/15 03:48:17;;;;;;;10.82;7.25;;;;;;;24.76;45.65;100132.28;5065488;28;20040;-74
2022/08/15 03:50:54;;;;;;;7.93;6.32;;;;;;;24.76;45.62;100129.53;5092007;28;20035;-75
2022/08/15 03:53:32;;;;;;;7.22;6.53;;;;;;;24.74;45.54;100129.75;5091866;28;20044;-74
2022/08/15 03:56:01;;;;;;;10.65;6.20;;;;;;;24.76;45.41;100135.03;5092243;28;20051;-74
2022/08/15 03:58:33;;;;;;;7.60;6.30;;;;;;;24.72;45.07;100131.88;5092235;28;20036;-73
2022/08/15 04:01:13;;;;;;;7.32;6.13;;;;;;;24.66;45.40;100141.81;5093274;28;20059;-72
2022/08/15 04:03:42;;;;;;;7.13;5.70;;;;;;;24.58;44.87;100144.81;5091407;27;20066;-74
2022/08/15 04:06:12;;;;;;;6.75;5.93;;;;;;;24.49;45.22;100139.75;5092095;28;20051;-73
2022/08/15 04:08:45;;;;;;;11.60;5.72;;;;;;;24.43;45.03;100144.22;5092062;28;20063;-73
2022/08/15 04:11:33;;;;;;;5.57;4.80;;;;;;;24.37;44.94;100136.84;5091748;28;20040;-74
2022/08/15 04:14:08;;;;;;;6.05;5.45;;;;;;;24.34;45.13;100132.63;5075829;28;20540;-74
2022/08/15 04:16:57;;;;;;;7.88;5.47;;;;;;;24.33;45.11;100130.94;5091860;28;20048;-74
2022/08/15 04:19:32;;;;;;;7.68;5.63;;;;;;;24.32;45.21;100131.16;5091752;28;20125;-76
2022/08/15 04:22:34;;;;;;;5.95;5.35;;;;;;;24.31;45.03;100134.97;5091543;28;20040;-75
2022/08/15 04:25:18;;;;;;;6.10;5.50;;;;;;;24.31;45.09;100137.72;5088516;28;20136;-75
2022/08/15 04:27:49;;;;;;;6.78;5.50;;;;;;;24.29;44.90;100148.06;5071462;28;20407;-75
2022/08/15 04:30:26;;;;;;;7.03;5.57;;;;;;;24.28;45.02;100143.63;5071157;28;20491;-75
2022/08/15 04:33:05;;;;;;;8.00;5.70;;;;;;;24.27;45.07;100147.44;5074350;28;20075;-74
2022/08/15 04:35:56;;;;;;;7.80;5.60;;;;;;;24.23;44.98;100141.50;5091522;28;20039;-75
2022/08/15 04:38:23;;;;;;;7.97;6.05;;;;;;;24.18;44.61;100149.53;5071024;28;20571;-73
2022/08/15 04:40:50;;;;;;;7.40;5.90;;;;;;;24.16;44.90;100148.91;5087778;28;20090;-74
2022/08/15 04:43:43;;;;;;;9.45;6.22;;;;;;;24.15;44.99;100152.69;5090642;28;20127;-74
2022/08/15 04:46:16;;;;;;;8.55;5.90;;;;;;;24.15;44.76;100155.44;5091389;28;20039;-74
2022/08/15 04:48:52;;;;;;;10.30;6.53;;;;;;;24.14;45.06;100152.91;5091146;27;20040;-75
2022/08/15 04:51:20;;;;;;;10.32;6.45;;;;;;;24.14;44.89;100152.91;5091094;28;20047;-75
2022/08/15 04:54:03;;;;;;;7.95;6.47;;;;;;;24.15;45.05;100160.94;5070602;28;20052;-75
2022/08/15 04:56:30;;;;;;;9.20;7.10;;;;;;;24.16;44.94;100159.03;5087715;28;20048;-74
2022/08/15 04:59:18;;;;;;;8.82;7.32;;;;;;;24.18;44.79;100163.25;5091172;28;20496;-74
2022/08/15 05:02:05;;;;;;;7.50;6.80;;;;;;;24.19;44.91;100155.84;5090500;28;20051;-74
2022/08/15 05:04:52;;;;;;;9.02;7.00;;;;;;;24.18;45.17;100160.50;5070641;28;20149;-75
2022/08/15 05:07:19;;;;;;;8.65;6.85;;;;;;;24.17;44.82;100157.97;5070433;28;20453;-74
2022/08/15 05:09:52;;;;;;;10.10;7.60;;;;;;;24.17;44.95;100163.47;5070459;28;20102;-75
2022/08/15 05:12:35;;;;;;;9.95;7.78;;;;;;;24.18;44.77;100171.47;5074757;28;20054;-75
2022/08/15 05:15:03;;;;;;;9.55;7.70;;;;;;;24.19;44.97;100170.41;5090814;28;20047;-75
2022/08/15 05:17:32;;;;;;;12.40;8.10;;;;;;;24.21;45.13;100178.44;5074000;28;20044;-74
2022/08/15 05:20:21;;;;;;;11.98;8.40;;;;;;;24.23;45.11;100179.91;5090458;28;20036;-74
2022/08/15 05:23:19;;;;;;;10.15;7.93;;;;;;;24.26;45.48;100181.38;5073450;28;20054;-74
2022/08/15 05:26:02;;;;;;;11.07;8.30;;;;;;;24.30;45.23;100178.03;5090518;28;20048;-75
2022/08/15 05:28:30;;;;;;;12.57;9.23;;;;;;;24.33;45.39;100182.25;5090566;28;20135;-73
2022/08/15 05:31:06;;;;;;;10.75;9.13;;;;;;;24.35;45.23;100175.47;5090239;28;20040;-73
2022/08/15 05:33:45;;;;;;;13.68;8.75;;;;;;;24.38;45.68;100180.53;5074658;28;20040;-74
2022/08/15 05:36:24;;;;;;;12.57;8.77;;;;;;;24.41;45.50;100173.78;5090383;28;20047;-72
2022/08/15 05:39:13;;;;;;;14.82;9.30;;;;;;;24.47;45.77;100194.88;5090137;27;20036;-75
2022/08/15 05:41:52;;;;;;;13.90;10.20;;;;;;;24.51;45.70;100185.16;5089159;28;20098;-73
2022/08/15 05:44:36;;;;;;;15.77;11.20;;;;;;;24.58;46.01;100186.00;5090444;28;20061;-74
2022/08/15 05:47:16;;;;;;;23.63;16.38;;;;;;;24.66;46.04;100194.00;5090236;28;20352;-74
2022/08/15 05:49:46;;;;;;;32.25;22.33;;;;;;;24.73;46.00;100193.13;5073730;28;20138;-74
2022/08/15 05:52:34;;;;;;;30.98;21.73;;;;;;;24.79;45.96;100198.59;5091062;28;20516;-78
2022/08/15 05:55:07;;;;;;;29.08;22.10;;;;;;;24.88;46.02;100200.03;5089961;28;20048;-78
2022/08/15 05:57:39;;;;;;;34.78;22.45;;;;;;;24.96;45.92;100202.53;5090228;28;20040;-77
2022/08/15 06:00:14;;;;;;;37.28;21.55;;;;;;;25.08;45.92;100199.13;5074094;28;20047;-77
2022/08/15 06:02:51;;;;;;;27.63;20.15;;;;;;;25.17;46.14;100206.06;5089572;28;20048;-77
2022/08/15 06:05:44;;;;;;;20.23;16.42;;;;;;;25.28;46.05;100210.88;5091037;28;20131;-75
2022/08/15 06:08:20;;;;;;;17.98;12.93;;;;;;;25.33;46.29;100205.56;5090170;28;20059;-79
2022/08/15 06:11:10;;;;;;;15.90;8.65;;;;;;;25.38;46.04;100213.16;5070935;28;20036;-79
2022/08/15 06:13:55;;;;;;;8.63;6.72;;;;;;;25.39;46.20;100209.34;5071462;28;20036;-79
2022/08/15 06:16:33;;;;;;;;;;;;;;;25.42;45.85;100207.00;5074322;28;20037;-79
2022/08/15 06:19:32;;;;;;;8.18;5.50;;;;;;;25.53;46.06;100199.94;5079293;28;20383;-79
2022/08/15 06:22:13;;;;;;;7.05;5.05;;;;;;;25.59;45.71;100202.63;5093658;28;20409;-80
2022/08/15 06:24:53;;;;;;;7.32;4.68;;;;;;;25.67;46.15;100193.31;5094083;28;20109;-76
2022/08/15 06:27:30;;;;;;;8.10;4.90;;;;;;;25.75;46.16;100193.03;5093505;28;20123;-79
2022/08/15 06:30:23;;;;;;;7.25;5.03;;;;;;;25.85;45.73;100190.63;5093447;28;20451;-78
2022/08/15 06:33:23;;;;;;;7.13;5.28;;;;;;;25.94;45.90;100194.78;5093341;28;20075;-73
2022/08/15 06:36:15;;;;;;;7.32;5.22;;;;;;;26.07;45.61;100209.50;5093733;28;20541;-74
2022/08/15 06:39:01;;;;;;;6.72;4.90;;;;;;;26.11;45.51;100213.50;5093730;28;20043;-76
2022/08/15 06:41:39;;;;;;;5.43;4.50;;;;;;;26.16;45.66;100227.41;5093210;28;20501;-78
2022/08/15 06:44:30;;;;;;;6.38;4.57;;;;;;;26.19;45.63;100224.22;5093800;28;20135;-75
2022/08/15 06:47:04;;;;;;;7.35;4.93;;;;;;;26.24;45.57;100230.72;5093520;28;20044;-75
2022/08/15 06:49:36;;;;;;;6.25;4.43;;;;;;;26.26;45.51;100236.00;5075203;28;20084;-74
2022/08/15 06:52:05;;;;;;;6.72;4.38;;;;;;;26.29;45.79;100232.81;5094391;28;20032;-75
2022/08/15 06:54:42;;;;;;;7.18;4.07;;;;;;;26.34;45.77;100224.72;5093392;27;20123;-73
2022/08/15 06:57:53;;;;;;;4.20;3.55;;;;;;;26.38;45.62;100223.22;5090729;28;20071;-76
2022/08/15 07:00:36;;;;;;;6.00;3.80;;;;;;;26.43;45.63;100214.28;5092836;28;20071;-77
2022/08/15 07:03:41;;;;;;;10.30;3.85;;;;;;;26.51;45.49;100214.81;5093068;28;20131;-77
2022/08/15 07:06:18;;;;;;;7.68;3.97;;;;;;;26.59;45.56;100217.25;5076372;28;20406;-77
2022/08/15 07:08:55;;;;;;;7.32;4.22;;;;;;;26.65;45.66;100215.50;5093163;28;20490;-77
2022/08/15 07:11:42;;;;;;;5.05;4.50;;;;;;;26.68;45.17;100216.97;5092808;27;20044;-79
2022/08/15 07:14:47;;;;;;;7.13;4.50;;;;;;;26.73;45.20;100214.34;5093211;28;20358;-77
2022/08/15 07:17:25;;;;;;;7.47;4.18;;;;;;;26.79;45.25;100211.56;5093001;28;20032;-77
2022/08/15 07:19:59;;;;;;;7.80;4.65;;;;;;;26.84;44.92;100205.34;5093038;28;20071;-77
2022/08/15 07:22:46;;;;;;;9.20;4.45;;;;;;;26.89;45.07;100208.25;5092769;28;20379;-77
2022/08/15 07:25:25;;;;;;;9.40;5.97;;;;;;;26.90;44.90;100207.19;5092517;28;20072;-77
2022/08/15 07:28:00;;;;;;;6.55;4.53;;;;;;;26.91;45.06;100208.88;5092893;28;20044;-77
2022/08/15 07:30:45;;;;;;;6.88;4.70;;;;;;;26.90;45.32;100215.44;5092579;28;20093;-77
2022/08/15 07:33:51;;;;;;;8.80;4.93;;;;;;;26.85;45.10;100218.06;5092541;28;20055;-77
2022/08/15 07:36:24;;;;;;;5.72;4.60;;;;;;;26.87;45.28;100218.66;5062116;28;20509;-77
2022/08/15 07:39:19;;;;;;;11.27;4.47;;;;;;;26.88;44.98;100220.34;5072449;28;20036;-77
2022/08/15 07:42:09;;;;;;;9.10;4.20;;;;;;;26.94;44.95;100218.59;5057209;28;20041;-75
2022/08/15 07:44:59;;;;;;;4.82;3.72;;;;;;;26.99;45.15;100225.13;5072265;28;20075;-75
2022/08/15 07:47:29;;;;;;;9.27;4.47;;;;;;;27.03;45.17;100226.34;5074816;28;20044;-76
2022/08/15 07:50:29;;;;;;;5.05;3.67;;;;;;;27.08;45.36;100220.97;5092486;28;20474;-75
2022/08/15 07:53:21;;;;;;;5.20;4.07;;;;;;;27.17;45.06;100214.06;5092206;28;20073;-83
2022/08/15 07:56:15;;;;;;;4.95;3.55;;;;;;;27.27;45.00;100215.41;5092302;28;20040;-79
2022/08/15 07:59:10;;;;;;;7.20;4.30;;;;;;;27.39;44.67;100219.06;5071933;28;20097;-72
2022/08/15 08:01:37;;;;;;;7.13;4.03;;;;;;;27.47;44.68;100213.22;5084710;28;20122;-75
2022/08/15 08:04:27;;;;;;;5.70;4.43;;;;;;;27.52;44.72;100222.50;5092192;28;20036;-77
2022/08/15 08:07:06;;;;;;;7.07;4.05;;;;;;;27.68;44.78;100231.19;5091635;28;20040;-78
2022/08/15 08:09:44;;;;;;;5.72;4.30;;;;;;;27.83;44.69;100240.72;5092319;28;20048;-76
2022/08/15 08:12:54;;;;;;;6.45;4.55;;;;;;;27.96;44.34;100238.81;5091672;28;20514;-80
2022/08/15 08:15:57;;;;;;;8.45;4.30;;;;;;;28.09;44.60;100236.69;5092664;28;20593;-80
2022/08/15 08:18:50;;;;;;;6.85;4.30;;;;;;;28.25;44.52;100232.44;5091512;28;20032;-78
2022/08/15 08:21:21;;;;;;;8.55;4.32;;;;;;;28.40;44.19;100235.56;5074958;28;20127;-78
2022/08/15 08:24:11;;;;;;;6.68;4.75;;;;;;;28.55;44.30;100234.22;5091790;28;20059;-75
2022/08/15 08:27:04;;;;;;;7.25;4.50;;;;;;;28.72;44.31;100232.41;5094911;28;20089;-76
2022/08/15 08:30:19;;;;;;;6.40;4.40;;;;;;;28.85;43.75;100231.31;5071059;28;20135;-77
2022/08/15 08:33:34;;;;;;;9.05;4.10;;;;;;;28.90;43.66;100237.78;5072389;28;20041;-80
2022/08/15 08:36:20;;;;;;;8.77;4.18;;;;;;;28.91;43.18;100233.94;5083122;28;20484;-76
2022/08/15 08:39:21;;;;;;;7.38;5.03;;;;;;;28.83;43.13;100238.97;5090737;28;20074;-77
2022/08/15 08:41:51;;;;;;;;;;;;;;;28.78;43.02;100232.25;5091668;28;20079;-78
2022/08/15 08:44:30;;;;;;;5.32;4.28;;;;;;;28.79;42.91;100238.63;5092642;28;19955;-80
2022/08/15 08:47:06;;;;;;;5.22;4.70;;;;;;;28.78;43.04;100234.19;5091611;28;20040;-77
2022/08/15 08:49:47;;;;;;;6.25;4.47;;;;;;;28.74;42.97;100238.53;5090256;28;20043;-75
2022/08/15 08:52:49;;;;;;;8.55;4.60;;;;;;;28.68;42.79;100236.72;5096222;28;20567;-79
2022/08/15 08:55:47;;;;;;;9.20;4.60;;;;;;;28.57;42.81;100241.19;5071337;28;20052;-79
2022/08/15 08:58:24;;;;;;;8.18;4.63;;;;;;;28.52;42.77;100240.22;5070826;28;20045;-78
2022/08/15 09:01:16;;;;;;;7.72;4.78;;;;;;;28.51;43.02;100235.78;5070344;28;20056;-78
2022/08/15 09:03:51;;;;;;;7.70;4.80;;;;;;;28.50;42.92;100234.94;5091341;27;20040;-79
2022/08/15 09:06:24;;;;;;;7.35;5.00;;;;;;;28.51;43.21;100241.31;5091634;28;20032;-81
2022/08/15 09:09:02;;;;;;;7.32;5.00;;;;;;;28.50;43.13;100240.47;5090407;28;20123;-77
2022/08/15 09:11:56;;;;;;;7.07;5.10;;;;;;;28.52;43.33;100237.47;5092140;28;20063;-78
2022/08/15 09:14:37;;;;;;;6.72;5.55;;;;;;;28.55;43.24;100239.75;5091935;28;20066;-80
2022/08/15 09:17:26;;;;;;;11.52;5.78;;;;;;;28.59;43.57;100236.25;5090309;28;20036;-77
2022/08/15 09:20:17;;;;;;;8.10;6.25;;;;;;;28.62;43.50;100232.16;5089699;28;20379;-79
2022/08/15 09:22:49;;;;;;;8.80;5.40;;;;;;;28.65;43.38;100240.81;5091624;28;20039;-77
2022/08/15 09:25:21;;;;;;;7.25;5.40;;;;;;;28.66;43.49;100252.72;5090373;28;20051;-78
2022/08/15 09:28:07;;;;;;;9.10;5.32;;;;;;;28.63;43.22;100250.44;5090442;28;20040;-78
2022/08/15 09:30:56;;;;;;;10.82;5.25;;;;;;;28.56;43.17;100245.03;5089597;28;20052;-77
2022/08/15 09:33:54;;;;;;;12.82;5.60;;;;;;;28.50;43.65;100246.00;5091456;28;20044;-76
2022/08/15 09:36:41;;;;;;;7.68;4.90;;;;;;;28.45;43.93;100245.88;5091230;28;20067;-78
2022/08/15 09:39:24;;;;;;;5.25;4.72;;;;;;;28.37;44.06;100246.25;5089876;28;20040;-79
2022/08/15 09:42:31;;;;;;;10.73;5.50;;;;;;;28.30;44.82;100251.88;5071115;28;20037;-78
2022/08/15 09:45:34;;;;;;;6.85;5.95;;;;;;;28.22;45.22;100248.56;5071162;28;20047;-77
2022/08/15 09:48:24;;;;;;;8.55;6.63;;;;;;;28.16;45.24;100248.44;5071009;28;20036;-78
2022/08/15 09:51:04;;;;;;;9.35;7.28;;;;;;;28.12;45.63;100250.00;5087448;27;20556;-78
2022/08/15 09:53:53;;;;;;;9.05;6.88;;;;;;;28.11;45.49;100256.59;5090679;28;20089;-81
2022/08/15 09:56:31;;;;;;;7.57;6.70;;;;;;;28.07;45.76;100254.56;5089500;28;20040;-78
2022/08/15 09:59:21;;;;;;;8.68;7.22;;;;;;;28.05;46.38;100263.06;5073645;28;20636;-80
2022/08/15 10:01:52;;;;;;;8.50;6.32;;;;;;;28.07;46.01;100257.31;5077747;28;20044;-79
2022/08/15 10:04:40;;;;;;;12.00;6.75;;;;;;;28.07;46.03;100260.09;5089882;28;20105;-82
2022/08/15 10:07:07;;;;;;;10.40;6.95;;;;;;;28.14;45.99;100258.88;5089606;28;20046;-77
2022/08/15 10:10:00;;;;;;;8.27;6.90;;;;;;;28.16;46.22;100258.66;5090288;28;20046;-84
2022/08/15 10:12:32;;;;;;;10.10;7.82;;;;;;;28.21;46.18;100257.94;5090690;28;20040;-83
2022/08/15 10:15:33;;;;;;;10.07;6.68;;;;;;;28.20;46.12;100265.38;5092904;28;20110;-83
2022/08/15 10:18:08;;;;;;;9.57;6.70;;;;;;;28.25;45.90;100264.72;5072023;28;20040;-84
2022/08/15 10:20:40;;;;;;;9.35;6.10;;;;;;;28.26;46.03;100270.00;5090907;28;20380;-80
2022/08/15 10:23:13;;;;;;;7.30;5.57;;;;;;;28.27;45.95;100271.69;5089900;28;20046;-81
2022/08/15 10:26:08;;;;;;;10.23;5.85;;;;;;;28.25;45.93;100276.63;5089407;28;20044;-78
2022/08/15 10:29:17;;;;;;;8.70;6.05;;;;;;;28.27;46.00;100273.63;5090677;28;20051;-80
2022/08/15 10:31:58;;;;;;;8.88;6.20;;;;;;;28.24;45.77;100266.66;5090704;28;20086;-78
2022/08/15 10:35:01;;;;;;;9.75;6.55;;;;;;;28.22;45.99;100265.13;5091024;28;20036;-78
2022/08/15 10:37:51;;;;;;;9.48;6.43;;;;;;;28.25;45.90;100273.00;5089196;28;20505;-77
2022/08/15 10:40:40;;;;;;;10.77;7.03;;;;;;;28.24;45.55;100277.69;5089307;28;20079;-78
2022/08/15 10:43:33;;;;;;;8.18;6.15;;;;;;;28.28;45.82;100280.81;5070194;28;20072;-78
2022/08/15 10:46:46;;;;;;;11.00;6.80;;;;;;;28.34;45.84;100282.63;5070522;28;20422;-79
2022/08/15 10:49:27;;;;;;;7.53;6.13;;;;;;;28.36;45.76;100281.31;5087569;28;20087;-79
2022/08/15 10:52:01;;;;;;;8.88;6.35;;;;;;;28.37;45.54;100280.22;5090477;28;20390;-79
2022/08/15 10:54:40;;;;;;;8.32;5.97;;;;;;;28.35;45.59;100287.06;5090887;27;20048;-79
2022/08/15 10:57:08;;;;;;;9.10;6.03;;;;;;;28.36;45.69;100288.75;5090625;28;20036;-79
2022/08/15 10:59:48;;;;;;;13.02;6.47;;;;;;;28.34;45.78;100286.22;5091812;28;20139;-79
2022/08/15 11:02:47;;;;;;;8.05;6.43;;;;;;;28.38;45.92;100287.44;5094384;28;20040;-79
2022/08/15 11:05:34;;;;;;;10.80;5.93;;;;;;;28.45;45.45;100290.06;5092745;28;20438;-79
2022/08/15 11:08:02;;;;;;;6.53;5.78;;;;;;;28.48;45.77;100289.59;5092764;28;20040;-81
2022/08/15 11:10:32;;;;;;;8.98;5.93;;;;;;;28.51;45.79;100293.78;5094105;28;20050;-80
2022/08/15 11:15:54;;;;;;;7.25;4.90;;;;;;;28.60;46.10;100295.13;5093654;27;20052;-79
2022/08/15 11:18:50;;;;;;;9.18;6.13;;;;;;;28.64;46.03;100288.88;5093235;28;20044;-80
2022/08/15 11:21:30;;;;;;;8.52;5.55;;;;;;;28.70;45.96;100293.44;5094153;28;20111;-78
2022/08/15 11:24:02;;;;;;;10.55;5.85;;;;;;;28.69;45.91;100288.16;5094255;28;20044;-79
2022/08/15 11:26:32;;;;;;;10.77;5.80;;;;;;;28.72;45.98;100293.19;5092504;28;20052;-79
2022/08/15 11:29:19;;;;;;;10.45;5.38;;;;;;;28.74;46.09;100297.41;5092348;28;20130;-79
2022/08/15 11:31:58;;;;;;;8.40;5.80;;;;;;;28.84;45.87;100301.50;5093528;28;20486;-80
2022/08/15 11:34:46;;;;;;;8.57;6.47;;;;;;;28.98;45.65;100295.47;5092696;28;20044;-80
2022/08/15 11:37:20;;;;;;;7.93;5.82;;;;;;;29.14;45.82;100296.66;5092415;28;20101;-80
2022/08/15 11:39:52;;;;;;;8.20;6.07;;;;;;;29.32;45.44;100302.03;5093040;28;20490;-79
2022/08/15 11:42:24;;;;;;;6.70;4.35;;;;;;;29.49;45.41;100293.81;5092080;28;20048;-79
2022/08/15 11:45:15;;;;;;;11.23;6.32;;;;;;;29.65;45.05;100292.19;5092462;28;20490;-77
2022/08/15 11:47:49;;;;;;;7.63;5.40;;;;;;;29.78;44.82;100303.00;5093279;28;20115;-78
2022/08/15 11:50:23;;;;;;;6.32;5.00;;;;;;;29.86;44.53;100296.22;5107126;28;20064;-79
2022/08/15 11:53:12;;;;;;;5.82;4.90;;;;;;;29.93;44.23;100305.19;5092002;28;20097;-78
2022/08/15 11:55:39;;;;;;;8.85;5.68;;;;;;;30.07;44.06;100301.06;5093179;28;20115;-78
2022/08/15 11:58:13;;;;;;;6.18;4.60;;;;;;;30.15;43.90;100303.41;5092812;28;20032;-77
2022/08/15 12:00:58;;;;;;;5.55;4.60;;;;;;;30.32;43.79;100298.72;5093227;28;20097;-78
2022/08/15 12:03:32;;;;;;;6.15;4.68;;;;;;;30.52;43.14;100308.47;5093311;28;20096;-78
2022/08/15 12:06:29;;;;;;;9.73;5.13;;;;;;;30.64;42.95;100306.47;5091974;28;20390;-77
2022/08/15 12:09:19;;;;;;;10.57;5.13;;;;;;;30.69;43.10;100302.94;5092907;28;20131;-77
2022/08/15 12:12:23;;;;;;;8.15;5.40;;;;;;;30.81;42.71;100304.50;5092832;28;20039;-78
2022/08/15 12:15:00;;;;;;;6.68;5.00;;;;;;;30.86;42.48;100310.13;5093305;28;20036;-78
2022/08/15 12:17:30;;;;;;;6.78;5.10;;;;;;;30.85;42.15;100310.38;5092905;27;20064;-77
2022/08/15 12:20:34;;;;;;;6.00;4.22;;;;;;;30.78;42.14;100315.28;5092789;28;20040;-74
2022/08/15 12:23:28;;;;;;;5.82;4.80;;;;;;;30.78;42.04;100313.34;5092857;28;20040;-76
2022/08/15 12:26:05;;;;;;;8.40;4.70;;;;;;;30.79;42.12;100311.41;5092644;28;20064;-76
2022/08/15 12:28:54;;;;;;;10.27;5.45;;;;;;;30.80;42.03;100324.19;5077270;28;20051;-76
2022/08/15 12:31:33;;;;;;;10.00;4.53;;;;;;;30.80;41.74;100322.25;5092046;28;20119;-70
2022/08/15 12:34:10;;;;;;;5.68;4.72;;;;;;;30.79;41.38;100322.50;5092404;28;20054;-76
2022/08/15 12:37:00;;;;;;;7.65;5.18;;;;;;;30.76;41.57;100321.06;5092105;28;20483;-77